createdAt,value
2023-03-21T06:48:55.663Z,67.24
2023-03-21T06:53:57.718Z,66.90
2023-03-21T06:59:00.023Z,66.61
2023-03-21T07:04:02.157Z,65.45
2023-03-21T07:09:05.837Z,65.04
2023-03-21T07:14:07.911Z,64.53
2023-03-21T07:19:10.028Z,64.75
2023-03-21T07:24:12.108Z,65.27
2023-03-21T07:29:14.232Z,65.02
2023-03-21T07:34:17.027Z,64.84
2023-03-21T07:39:20.561Z,63.76
2023-03-21T07:44:24.425Z,62.27
2023-03-21T07:49:26.673Z,61.15
2023-03-21T07:54:28.845Z,60.28
2023-03-21T07:59:31.044Z,59.21
2023-03-21T08:04:37.840Z,58.46
2023-03-21T08:09:40.021Z,57.61
2023-03-21T08:14:42.193Z,56.24
2023-03-21T08:19:45.055Z,55.46
2023-03-21T08:24:47.126Z,54.48
2023-03-21T08:29:49.211Z,53.45
2023-03-21T08:34:52.285Z,52.08
2023-03-21T08:39:55.015Z,51.64
2023-03-21T08:44:57.061Z,50.32
2023-03-21T08:49:59.372Z,49.47
2023-03-21T08:55:02.383Z,48.79
2023-03-21T09:00:15.626Z,48.38
2023-03-21T09:05:18.502Z,47.33
2023-03-21T09:10:23.156Z,46.21
2023-03-21T09:15:28.997Z,44.78
2023-03-21T09:20:33.021Z,43.96
2023-03-21T09:25:36.761Z,44.08
2023-03-21T09:30:39.139Z,43.12
2023-03-21T09:35:41.920Z,42.06
2023-03-21T09:41:25.826Z,42.15
2023-03-21T09:46:54.946Z,42.27
2023-03-21T09:52:03.640Z,40.89
2023-03-21T09:57:19.648Z,39.67
2023-03-21T10:02:36.731Z,39.83
2023-03-21T10:07:44.620Z,39.33
2023-03-21T10:12:49.936Z,39.96
2023-03-21T10:17:57.301Z,39.51
2023-03-21T10:23:03.306Z,38.23
2023-03-21T10:28:07.611Z,37.15
2023-03-21T10:33:14.541Z,36.48
2023-03-21T10:38:19.988Z,36.31
2023-03-21T10:43:27.982Z,35.21
2023-03-21T10:48:36.170Z,35.09
2023-03-21T10:53:49.822Z,34.80
2023-03-21T10:58:52.766Z,35.39
2023-03-21T11:04:01.162Z,34.35
2023-03-21T11:09:15.807Z,33.63
2023-03-21T11:14:31.740Z,32.18
2023-03-21T11:19:36.444Z,31.65
2023-03-21T11:24:39.538Z,31.55
2023-03-21T11:29:48.780Z,31.33
2023-03-21T11:35:03.748Z,31.44
2023-03-21T11:40:25.644Z,31.73
2023-03-21T11:45:29.939Z,30.08
2023-03-21T11:50:41.954Z,30.76
2023-03-21T11:56:02.539Z,30.34
2023-03-21T12:01:13.088Z,30.25
2023-03-21T12:06:21.342Z,29.52
2023-03-21T12:11:51.389Z,29.78
2023-03-21T12:16:59.247Z,31.14
2023-03-21T12:22:04.332Z,31.26
2023-03-21T12:27:06.474Z,31.03
2023-03-21T12:32:27.180Z,31.28
2023-03-21T12:37:55.495Z,31.49
2023-03-21T12:43:22.984Z,30.43
2023-03-21T12:48:42.071Z,30.62
2023-03-21T12:54:04.457Z,30.13
2023-03-21T12:59:20.755Z,31.98
2023-03-21T13:04:39.090Z,33.87
2023-03-21T13:09:42.268Z,35.04
2023-03-21T13:15:18.365Z,35.62
2023-03-21T13:20:40.925Z,34.12
2023-03-21T13:25:47.053Z,29.30
2023-03-21T13:30:50.268Z,26.05
2023-03-21T13:36:08.264Z,24.04
2023-03-21T13:41:17.562Z,25.49
2023-03-21T13:46:26.055Z,27.86
2023-03-21T13:51:28.144Z,28.69
2023-03-21T13:56:53.499Z,26.15
2023-03-21T14:02:20.424Z,15.20
2023-03-21T14:07:31.610Z,13.43
2023-03-21T14:12:44.251Z,12.25
2023-03-21T14:17:57.709Z,11.34
2023-03-21T14:23:00.116Z,11.06
2023-03-21T14:28:07.713Z,11.23
2023-03-21T14:33:23.124Z,11.50
2023-03-21T14:38:34.701Z,12.23
2023-03-21T14:43:36.763Z,11.87
2023-03-21T14:48:38.933Z,12.66
2023-03-21T14:53:42.874Z,12.88
2023-03-21T14:58:47.204Z,12.32
2023-03-21T15:03:52.092Z,12.34
2023-03-21T15:08:57.121Z,13.70
2023-03-21T15:14:02.851Z,17.19
2023-03-21T15:19:06.436Z,19.19
2023-03-21T15:24:27.278Z,21.64
2023-03-21T15:29:30.263Z,23.96
2023-03-21T15:34:32.591Z,26.46
2023-03-21T15:39:36.420Z,27.30
2023-03-21T15:44:45.859Z,30.19
2023-03-21T15:49:54.154Z,31.64
2023-03-21T15:54:56.869Z,33.60
2023-03-21T16:00:21.647Z,32.29
2023-03-21T16:05:34.395Z,33.48
2023-03-21T16:10:38.362Z,34.03
2023-03-21T16:15:40.935Z,35.50
2023-03-21T16:20:45.216Z,36.54
2023-03-21T16:25:47.466Z,38.12
2023-03-21T16:30:49.560Z,38.13
2023-03-21T16:35:52.163Z,39.62
2023-03-21T16:40:54.230Z,40.46
2023-03-21T16:45:56.387Z,41.15
2023-03-21T16:50:58.530Z,41.65
2023-03-21T16:56:02.802Z,42.00
2023-03-21T17:01:05.046Z,42.76
2023-03-21T17:06:07.777Z,43.00
2023-03-21T17:11:20.139Z,43.38
2023-03-21T17:16:26.938Z,43.77
2023-03-21T17:21:29.720Z,44.34
2023-03-21T17:26:31.819Z,44.44
2023-03-21T17:31:36.949Z,44.95
2023-03-21T17:36:41.555Z,45.17
2023-03-21T17:41:43.658Z,45.71
2023-03-21T17:46:46.462Z,45.80
2023-03-21T17:51:48.726Z,46.23
2023-03-21T17:56:51.752Z,46.47
2023-03-21T18:01:53.951Z,46.81
2023-03-21T18:06:59.821Z,47.02
2023-03-21T18:12:02.614Z,47.26
2023-03-21T18:17:04.694Z,47.43
2023-03-21T18:22:06.772Z,47.83
2023-03-21T18:27:08.951Z,48.25
2023-03-21T18:32:11.407Z,48.39
2023-03-21T18:37:14.731Z,48.51
2023-03-21T18:42:19.810Z,48.89
2023-03-21T18:47:25.188Z,49.57
2023-03-21T18:52:27.400Z,49.62
2023-03-21T18:57:36.905Z,49.58
2023-03-21T19:02:46.237Z,49.99
2023-03-21T19:07:50.588Z,50.15
2023-03-21T19:12:54.832Z,50.52
2023-03-21T19:23:21.115Z,50.58
2023-03-21T19:28:23.251Z,51.05
2023-03-21T19:33:25.373Z,51.31
2023-03-21T19:38:27.605Z,51.50
2023-03-21T19:43:33.031Z,51.75
2023-03-21T19:48:38.014Z,51.83
2023-03-21T19:53:40.564Z,52.42
2023-03-21T19:58:42.723Z,52.40
2023-03-21T20:03:44.825Z,52.58
2023-03-21T20:09:31.075Z,52.73
2023-03-21T20:14:09.378Z,52.94
2023-03-21T20:19:14.590Z,53.21
2023-03-21T20:24:17.742Z,53.29
2023-03-21T20:30:07.191Z,53.41
2023-03-21T20:34:44.448Z,53.54
2023-03-21T20:39:46.658Z,53.73
2023-03-21T20:44:58.327Z,53.66
2023-03-21T20:50:01.310Z,53.83
2023-03-21T20:55:04.226Z,54.03
2023-03-21T21:00:18.036Z,54.25
2023-03-21T21:05:35.681Z,54.45
2023-03-21T21:11:00.497Z,54.60
2023-03-21T21:16:01.436Z,54.77
2023-03-21T21:21:06.071Z,54.59
